Time;durP1;ratioP1;P1;durP2;ratioP2;P2;SDS_P1;SDS_P2;PMS_P1;PMS_P2;Temp;Humidity;BMP_temperature;BMP_pressure;BME280_temperature;BME280_humidity;BME280_pressure;Samples;Min_cycle;Max_cycle;Signal;HPM_P1;HPM_P2
2024/01/15 00:00:34;;;;;;;9.77;4.75;;;0.00;99.90;;;-0.42;78.79;99632.44;4826792;28;24519;-63
2024/01/15 00:02:57;;;;;;;13.25;5.40;;;-0.10;99.90;;;-0.46;79.15;99630.91;4828509;28;24428;-62
2024/01/15 00:05:19;;;;;;;9.82;4.88;;;-0.10;99.90;;;-0.43;79.74;99630.78;4829019;28;24468;-63
2024/01/15 00:07:41;;;;;;;9.45;5.18;;;-0.10;99.90;;;-0.42;79.51;99636.72;4830767;28;24428;-63
2024/01/15 00:10:03;;;;;;;14.10;6.22;;;-0.10;99.90;;;-0.41;79.64;99635.84;4835119;28;24482;-64
2024/01/15 00:12:25;;;;;;;10.32;3.70;;;-0.10;99.90;;;-0.52;79.80;99638.88;4825753;28;24480;-62
2024/01/15 00:14:47;;;;;;;9.90;5.03;;;-0.20;99.90;;;-0.58;79.93;99634.00;4826492;28;24491;-62
2024/01/15 00:17:09;;;;;;;12.10;5.55;;;-0.20;99.90;;;-0.65;80.37;99624.06;4819531;28;20798;-63
2024/01/15 00:19:32;;;;;;;16.65;6.10;;;-0.30;99.90;;;-0.65;80.26;99621.50;4825846;28;24486;-63
2024/01/15 00:21:54;;;;;;;13.85;5.90;;;-0.40;99.90;;;-0.60;80.68;99625.56;4830189;28;24435;-63
2024/01/15 00:24:16;;;;;;;14.18;6.15;;;-0.30;99.90;;;-0.53;80.88;99613.31;4819426;28;24507;-62
2024/01/15 00:26:38;;;;;;;12.52;5.43;;;-0.30;99.90;;;-0.50;80.65;99618.31;4833276;28;24535;-63
2024/01/15 00:29:00;;;;;;;14.43;6.53;;;-0.20;99.90;;;-0.48;81.17;99617.34;4829656;28;24427;-62
2024/01/15 00:31:22;;;;;;;13.00;6.00;;;-0.20;99.90;;;-0.44;80.66;99611.19;4825301;28;24496;-62
2024/01/15 00:33:44;;;;;;;13.40;6.63;;;-0.20;99.90;;;-0.36;80.78;99616.00;4832056;28;24506;-62
2024/01/15 00:36:07;;;;;;;11.65;6.05;;;-0.20;99.90;;;-0.33;80.44;99610.72;4828379;28;24551;-64
2024/01/15 00:38:29;;;;;;;15.02;6.68;;;-0.10;99.90;;;-0.28;80.16;99611.34;4821463;28;24435;-63
2024/01/15 00:40:51;;;;;;;14.68;6.88;;;0.00;99.90;;;-0.27;80.32;99613.00;4831262;28;24549;-61
2024/01/15 00:43:13;;;;;;;9.48;5.20;;;0.00;99.90;;;-0.28;80.00;99608.78;4832312;28;24544;-63
2024/01/15 00:45:35;;;;;;;14.07;6.33;;;0.00;99.90;;;-0.28;80.12;99617.28;4831113;28;24561;-63
2024/01/15 00:47:59;;;;;;;11.27;5.60;;;0.00;99.90;;;-0.25;79.58;99606.91;4808421;28;24467;-62
2024/01/15 00:50:21;;;;;;;14.98;6.30;;;0.00;99.90;;;-0.34;79.98;99612.44;4831239;28;25665;-63
2024/01/15 00:52:43;;;;;;;15.43;6.13;;;0.00;99.90;;;-0.35;79.96;99599.69;4825482;28;24530;-63
2024/01/15 00:55:06;;;;;;;12.85;6.30;;;-0.10;99.90;;;-0.32;80.14;99600.38;4835864;28;24491;-63
2024/01/15 00:57:28;;;;;;;12.60;5.53;;;0.00;99.90;;;-0.27;79.85;99595.91;4831530;28;24914;-63
2024/01/15 00:59:50;;;;;;;11.13;5.60;;;0.00;99.90;;;-0.26;79.86;99589.88;4832481;28;24435;-64
2024/01/15 01:02:12;;;;;;;13.38;5.80;;;0.00;99.90;;;-0.29;79.46;99595.13;4837715;28;24468;-63
2024/01/15 01:04:34;;;;;;;13.77;6.10;;;0.00;99.90;;;-0.28;79.79;99595.97;4830580;28;24795;-63
2024/01/15 01:06:56;;;;;;;15.35;6.90;;;0.00;99.90;;;-0.25;79.84;99590.69;4826949;28;24481;-64
2024/01/15 01:09:18;;;;;;;13.50;6.03;;;0.00;99.90;;;-0.24;80.08;99584.69;4837287;28;24451;-63
2024/01/15 01:11:40;;;;;;;14.93;5.53;;;0.00;99.90;;;-0.21;79.92;99587.94;4830524;28;25048;-63
2024/01/15 01:14:02;;;;;;;9.48;4.93;;;0.00;99.90;;;-0.21;79.57;99587.94;4829386;28;24436;-63
2024/01/15 01:16:24;;;;;;;8.85;4.75;;;0.10;99.90;;;-0.25;79.72;99580.44;4836697;28;25047;-63
2024/01/15 01:18:46;;;;;;;10.43;5.13;;;0.10;99.90;;;-0.28;79.33;99586.53;4816071;28;24460;-63
2024/01/15 01:21:08;;;;;;;11.52;5.10;;;0.00;99.90;;;-0.24;79.90;99588.09;4836551;28;24495;-63
2024/01/15 01:23:30;;;;;;;8.88;4.95;;;0.00;99.90;;;-0.24;79.24;99585.53;4836714;28;24803;-63
2024/01/15 01:25:52;;;;;;;10.63;4.90;;;0.10;99.90;;;-0.29;79.32;99590.00;4831926;28;24460;-63
2024/01/15 01:28:14;;;;;;;10.65;4.95;;;0.10;99.90;;;-0.31;79.83;99591.81;4831114;28;24431;-63
2024/01/15 01:30:36;;;;;;;7.78;4.95;;;0.00;99.90;;;-0.34;80.16;99591.13;4831510;28;24427;-63
2024/01/15 01:32:59;;;;;;;12.63;5.78;;;0.00;99.90;;;-0.32;79.83;99591.88;4836465;28;24470;-63
2024/01/15 01:35:22;;;;;;;12.13;5.40;;;0.00;99.90;;;-0.25;79.69;99590.69;4831325;28;24460;-63
2024/01/15 01:37:46;;;;;;;12.15;4.88;;;0.00;99.90;;;-0.22;79.94;99582.88;4829794;28;24467;-63
2024/01/15 01:40:09;;;;;;;10.27;4.80;;;0.00;99.90;;;-0.22;79.64;99588.00;4825561;28;24471;-62
2024/01/15 01:42:30;;;;;;;10.88;5.70;;;0.10;99.90;;;-0.19;79.74;99591.25;4830003;28;24524;-62
2024/01/15 01:44:52;;;;;;;12.98;6.00;;;0.10;99.90;;;-0.17;79.67;99594.59;4826032;28;24459;-62
2024/01/15 01:47:15;;;;;;;10.50;5.05;;;0.10;99.90;;;-0.22;79.83;99590.56;4836505;28;24551;-63
2024/01/15 01:49:37;;;;;;;9.27;4.90;;;0.10;99.90;;;-0.27;79.98;99583.09;4835011;28;24453;-63
2024/01/15 01:52:03;;;;;;;13.75;6.00;;;0.10;99.90;;;-0.21;79.60;99576.84;4837399;28;24429;-63
2024/01/15 01:54:28;;;;;;;13.35;6.25;;;0.10;99.90;;;-0.20;79.83;99583.66;4830257;28;24985;-62
2024/01/15 01:56:51;;;;;;;11.13;5.05;;;0.10;99.90;;;-0.20;79.77;99584.47;4818878;28;24467;-62
2024/01/15 01:59:13;;;;;;;13.60;6.70;;;0.10;99.90;;;-0.22;79.96;99578.59;4835657;28;24534;-63
2024/01/15 02:01:36;;;;;;;11.40;5.70;;;0.10;99.90;;;-0.21;80.37;99572.56;4832064;28;24437;-63
2024/01/15 02:03:58;;;;;;;10.18;5.40;;;0.10;99.90;;;-0.15;79.89;99576.59;4828474;28;24578;-62
2024/01/15 02:06:20;;;;;;;13.10;5.85;;;0.10;99.90;;;-0.15;79.77;99577.41;4828835;28;24456;-62
2024/01/15 02:08:44;;;;;;;12.70;5.93;;;0.10;99.90;;;-0.09;79.82;99578.88;4833192;28;25012;-63
2024/01/15 02:11:07;;;;;;;13.65;6.20;;;0.10;99.90;;;-0.06;80.13;99564.16;4828697;28;24425;-62
2024/01/15 02:13:29;;;;;;;12.70;5.70;;;0.20;99.90;;;-0.02;79.37;99564.84;4831766;28;24829;-59
2024/01/15 02:15:50;;;;;;;12.67;6.13;;;0.20;99.90;;;0.00;79.20;99563.06;4823708;28;24480;-63
2024/01/15 02:18:13;;;;;;;14.07;4.70;;;0.30;99.90;;;0.00;79.08;99560.50;4833201;28;24527;-63
2024/01/15 02:20:35;;;;;;;12.25;5.82;;;0.30;99.90;;;0.00;79.12;99561.31;4825800;28;20801;-62
2024/01/15 02:23:12;;;;;;;10.30;5.30;;;0.20;99.90;;;0.00;79.09;99556.19;4829383;28;24436;-61
2024/01/15 02:25:34;;;;;;;8.85;4.60;;;0.30;99.90;;;-0.04;79.16;99544.41;4830628;28;25012;-63
2024/01/15 02:27:56;;;;;;;5.55;3.22;;;0.30;99.90;;;-0.15;79.93;99545.81;4831267;28;24562;-63
2024/01/15 02:30:18;;;;;;;5.47;2.87;;;0.20;99.90;;;-0.25;79.99;99530.03;4830825;28;25044;-63
2024/01/15 02:32:40;;;;;;;4.95;2.78;;;0.10;99.90;;;-0.24;80.45;99506.06;4833759;28;24432;-62
2024/01/15 02:35:03;;;;;;;3.30;1.67;;;0.10;99.90;;;-0.28;80.23;99504.50;4827010;28;25134;-63
2024/01/15 02:37:25;;;;;;;6.82;3.25;;;0.10;99.90;;;-0.34;81.40;99521.94;4816429;28;25024;-64
2024/01/15 02:39:47;;;;;;;12.43;5.80;;;0.00;99.90;;;-0.35;81.30;99554.41;4833694;28;24528;-63
2024/01/15 02:42:09;;;;;;;9.77;4.30;;;0.00;99.90;;;-0.32;81.54;99556.00;4832850;28;24439;-64
2024/01/15 02:44:31;;;;;;;14.02;5.45;;;0.00;99.90;;;-0.24;81.02;99561.63;4827113;28;24822;-63
2024/01/15 02:46:53;;;;;;;8.98;4.95;;;0.00;99.90;;;-0.18;80.86;99564.75;4833742;28;25313;-63
2024/01/15 02:49:15;;;;;;;9.88;4.85;;;0.10;99.90;;;-0.17;80.63;99574.06;4834226;28;25057;-63
2024/01/15 02:51:37;;;;;;;9.48;4.60;;;0.10;99.90;;;-0.20;80.58;99566.53;4830042;28;24443;-62
2024/01/15 02:53:59;;;;;;;8.02;4.50;;;0.10;99.90;;;-0.18;80.58;99572.44;4831292;28;24787;-62
2024/01/15 02:56:21;;;;;;;12.55;5.30;;;0.10;99.90;;;-0.18;80.49;99569.88;4822411;28;24428;-62
2024/01/15 02:58:43;;;;;;;10.75;4.85;;;0.10;99.90;;;-0.09;80.37;99569.47;4835323;28;24490;-62
2024/01/15 03:01:05;;;;;;;10.00;4.47;;;0.20;99.90;;;-0.05;80.28;99563.28;4835171;28;24486;-63
2024/01/15 03:03:28;;;;;;;10.45;4.97;;;0.20;99.90;;;-0.01;80.13;99559.66;4833477;28;24471;-63
2024/01/15 03:05:50;;;;;;;8.60;4.35;;;0.30;99.90;;;-0.05;80.11;99559.88;4830907;28;24457;-62
2024/01/15 03:08:12;;;;;;;8.27;4.50;;;0.30;99.90;;;-0.05;80.23;99557.31;4835073;28;24482;-63
2024/01/15 03:10:34;;;;;;;10.73;5.10;;;0.20;99.90;;;-0.06;80.55;99553.91;4832753;28;24463;-63
2024/01/15 03:12:57;;;;;;;11.52;4.95;;;0.20;99.90;;;-0.05;80.79;99568.41;4825041;28;24488;-63
2024/01/15 03:15:19;;;;;;;10.82;5.28;;;0.20;99.90;;;-0.07;80.64;99559.97;4823698;28;24464;-63
2024/01/15 03:17:44;;;;;;;11.25;5.25;;;0.20;99.90;;;-0.08;80.43;99553.16;4835216;28;25000;-62
2024/01/15 03:20:07;;;;;;;11.27;5.40;;;0.20;99.90;;;-0.06;80.71;99545.38;4835549;28;24443;-63
2024/01/15 03:22:29;;;;;;;13.57;5.90;;;0.20;99.90;;;0.00;80.41;99545.94;4830118;28;24433;-62
2024/01/15 03:24:52;;;;;;;12.63;5.72;;;0.30;99.90;;;0.03;80.87;99557.78;4827043;28;24548;-62
2024/01/15 03:27:14;;;;;;;11.68;5.20;;;0.30;99.90;;;0.09;80.49;99564.34;4831006;28;24453;-63
2024/01/15 03:29:36;;;;;;;10.63;5.90;;;0.30;99.90;;;0.11;80.41;99552.31;4830838;28;24453;-62
2024/01/15 03:31:58;;;;;;;12.65;5.72;;;0.30;99.90;;;0.18;80.38;99571.63;4833314;28;24605;-62
2024/01/15 03:34:20;;;;;;;9.73;5.55;;;0.40;99.90;;;0.18;80.74;99563.94;4827931;28;24432;-62
2024/01/15 03:36:42;;;;;;;12.27;5.60;;;0.40;99.90;;;0.23;80.20;99567.13;4836790;28;24486;-63
2024/01/15 03:39:04;;;;;;;11.70;4.72;;;0.50;99.90;;;0.21;79.92;99553.56;4829033;28;24520;-62
2024/01/15 03:41:27;;;;;;;10.50;4.40;;;0.50;99.90;;;0.25;79.88;99545.63;4838080;28;24521;-63
2024/01/15 03:43:49;;;;;;;7.97;4.07;;;0.50;99.90;;;0.29;79.80;99544.59;4825722;28;24433;-63
2024/01/15 03:46:10;;;;;;;12.35;5.60;;;0.50;99.90;;;0.29;79.76;99556.56;4836685;28;24507;-63
2024/01/15 03:48:32;;;;;;;9.38;4.80;;;0.50;99.90;;;0.31;80.20;99563.31;4832684;28;24471;-62
2024/01/15 03:50:55;;;;;;;11.20;5.03;;;0.60;99.90;;;0.37;80.00;99555.31;4838616;28;24954;-62
2024/01/15 03:53:16;;;;;;;12.83;5.10;;;0.60;99.90;;;0.31;79.50;99547.06;4835222;28;24460;-62
2024/01/15 03:55:38;;;;;;;8.32;4.47;;;0.60;99.90;;;0.27;79.50;99535.31;4838999;28;24424;-62
2024/01/15 03:58:00;;;;;;;10.80;5.05;;;0.60;99.90;;;0.30;79.46;99532.59;4836303;28;24432;-62
2024/01/15 04:00:22;;;;;;;11.75;5.30;;;0.60;99.90;;;0.28;79.92;99530.09;4835382;28;24479;-63
2024/01/15 04:02:44;;;;;;;9.52;5.15;;;0.50;99.90;;;0.26;79.91;99526.75;4834828;28;24425;-64
2024/01/15 04:05:06;;;;;;;10.20;4.90;;;0.50;99.90;;;0.31;80.42;99518.84;4836108;28;24536;-63
2024/01/15 04:07:28;;;;;;;11.63;5.43;;;0.50;99.90;;;0.28;79.83;99511.31;4833172;28;24538;-63
2024/01/15 04:09:50;;;;;;;10.70;4.72;;;0.50;99.90;;;0.29;80.27;99513.81;4833513;28;24464;-63
2024/01/15 04:12:12;;;;;;;9.98;5.38;;;0.50;99.90;;;0.31;80.11;99516.28;4838474;28;24433;-63
2024/01/15 04:14:34;;;;;;;13.10;5.55;;;0.50;99.90;;;0.22;80.38;99520.13;4833652;28;24425;-63
2024/01/15 04:16:56;;;;;;;10.18;4.78;;;0.50;99.90;;;0.28;80.13;99514.69;4835471;28;24499;-63
2024/01/15 04:19:18;;;;;;;9.60;4.75;;;0.50;99.90;;;0.26;79.98;99495.13;4830801;28;24961;-63
2024/01/15 04:21:41;;;;;;;9.10;4.70;;;0.60;99.90;;;0.28;80.05;99499.31;4835587;28;25032;-62
2024/01/15 04:24:03;;;;;;;12.20;5.03;;;0.60;99.90;;;0.23;80.20;99487.63;4837650;28;24439;-63
2024/01/15 04:26:25;;;;;;;10.80;4.72;;;0.50;99.90;;;0.26;80.32;99482.31;4838434;28;24491;-62
2024/01/15 04:28:47;;;;;;;11.90;5.30;;;0.50;99.90;;;0.27;80.38;99487.41;4836531;28;24842;-63
2024/01/15 04:31:09;;;;;;;12.77;5.45;;;0.50;99.90;;;0.27;80.73;99486.56;4826144;28;24507;-62
2024/01/15 04:33:31;;;;;;;10.77;5.30;;;0.50;99.90;;;0.28;80.68;99477.97;4820326;28;24893;-62
2024/01/15 04:35:54;;;;;;;9.18;5.30;;;0.50;99.90;;;0.31;80.57;99472.69;4818277;28;24447;-62
2024/01/15 04:38:16;;;;;;;12.25;5.20;;;0.50;99.90;;;0.32;80.67;99482.03;4832351;28;24502;-63
2024/01/15 04:40:38;;;;;;;11.52;5.72;;;0.60;99.90;;;0.30;80.89;99476.16;4821042;28;24519;-63
2024/01/15 04:42:59;;;;;;;10.57;5.43;;;0.60;99.90;;;0.32;80.96;99480.28;4828754;28;24483;-62
2024/01/15 04:45:28;;;;;;;12.90;5.70;;;0.50;99.90;;;0.36;80.83;99483.56;4830931;28;25303;-64
2024/01/15 04:47:50;;;;;;;11.85;5.28;;;0.60;99.90;;;0.37;80.88;99485.19;4832033;28;24460;-64
2024/01/15 04:50:12;;;;;;;10.85;5.53;;;0.60;99.90;;;0.32;80.80;99480.28;4827340;28;24429;-64
2024/01/15 04:52:34;;;;;;;12.82;5.95;;;0.60;99.90;;;0.32;81.02;99477.72;4831090;28;24870;-62
2024/01/15 04:54:56;;;;;;;11.52;5.82;;;0.60;99.90;;;0.30;81.14;99471.84;4835463;28;24429;-63
2024/01/15 04:57:18;;;;;;;13.00;5.68;;;0.60;99.90;;;0.34;81.29;99483.59;4831383;28;24528;-62
2024/01/15 04:59:40;;;;;;;11.48;5.70;;;0.60;99.90;;;0.40;80.93;99490.19;4829164;28;24471;-63
2024/01/15 05:02:02;;;;;;;9.05;4.35;;;0.60;99.90;;;0.46;80.99;99492.47;4832223;28;24556;-62
2024/01/15 05:04:26;;;;;;;9.57;5.00;;;0.60;99.90;;;0.46;80.91;99488.16;4817437;28;24815;-63
2024/01/15 05:06:49;;;;;;;12.90;5.53;;;0.70;99.90;;;0.48;80.76;99473.53;4831196;28;24458;-63
2024/01/15 05:09:11;;;;;;;7.38;4.40;;;0.70;99.90;;;0.48;80.62;99472.69;4830435;28;24440;-63
2024/01/15 05:11:33;;;;;;;9.00;4.60;;;0.70;99.90;;;0.45;80.62;99460.00;4824688;28;24454;-63
2024/01/15 05:13:55;;;;;;;9.18;4.72;;;0.70;99.90;;;0.50;80.79;99460.59;4822867;28;24436;-62
2024/01/15 05:16:17;;;;;;;9.55;4.90;;;0.70;99.90;;;0.54;80.26;99460.38;4824928;28;24518;-63
2024/01/15 05:18:39;;;;;;;8.67;5.00;;;0.80;99.90;;;0.51;80.43;99454.59;4832114;28;24604;-63
2024/01/15 05:21:02;;;;;;;10.85;5.30;;;0.80;99.90;;;0.49;80.92;99451.25;4821310;28;24433;-62
2024/01/15 05:23:24;;;;;;;9.67;5.03;;;0.70;99.90;;;0.52;80.81;99445.97;4819400;28;24587;-63
2024/01/15 05:25:46;;;;;;;10.23;5.30;;;0.70;99.90;;;0.51;80.87;99440.00;4833718;28;24432;-63
2024/01/15 05:28:08;;;;;;;10.48;5.22;;;0.70;99.90;;;0.49;80.75;99446.13;4830044;28;24490;-63
2024/01/15 05:30:30;;;;;;;12.25;5.22;;;0.70;99.90;;;0.55;80.97;99440.69;4816051;28;24464;-63
2024/01/15 05:32:52;;;;;;;7.50;4.68;;;0.80;99.90;;;0.57;80.52;99434.56;4822003;28;24899;-62
2024/01/15 05:35:14;;;;;;;7.43;4.47;;;0.80;99.90;;;0.60;80.44;99441.28;4826988;28;24428;-63
2024/01/15 05:37:36;;;;;;;9.15;4.30;;;0.80;99.90;;;0.61;81.01;99442.94;4819470;28;24880;-63
2024/01/15 05:39:58;;;;;;;10.38;4.80;;;0.80;99.90;;;0.60;80.44;99442.09;4834213;28;25100;-63
2024/01/15 05:42:20;;;;;;;8.98;4.70;;;0.80;99.90;;;0.58;80.18;99440.50;4828596;28;24431;-64
2024/01/15 05:44:42;;;;;;;9.93;4.60;;;0.90;99.90;;;0.54;80.22;99447.56;4822673;28;24480;-63
2024/01/15 05:47:04;;;;;;;9.60;4.60;;;0.80;99.90;;;0.52;80.44;99448.53;4829756;28;24464;-63
2024/01/15 05:49:26;;;;;;;11.75;5.35;;;0.80;99.90;;;0.48;80.51;99447.84;4828617;28;24546;-63
2024/01/15 05:51:48;;;;;;;10.07;5.07;;;0.80;99.90;;;0.54;80.54;99444.16;4828292;28;24521;-63
2024/01/15 05:54:10;;;;;;;10.60;5.15;;;0.80;99.90;;;0.53;80.91;99443.31;4827745;28;24811;-60
2024/01/15 05:56:32;;;;;;;7.65;4.97;;;0.80;99.90;;;0.57;80.81;99444.00;4827809;28;24448;-62
2024/01/15 05:58:54;;;;;;;8.70;4.70;;;0.80;99.90;;;0.60;80.65;99444.66;4819558;28;24858;-63
2024/01/15 06:01:16;;;;;;;8.30;4.80;;;0.80;99.90;;;0.67;80.41;99445.19;4832179;28;24985;-62
2024/01/15 06:03:38;;;;;;;9.95;4.57;;;0.90;99.90;;;0.70;80.44;99450.19;4828044;28;26148;-63
2024/01/15 06:06:01;;;;;;;7.55;4.50;;;0.90;99.90;;;0.72;80.79;99454.31;4826146;28;24974;-63
2024/01/15 06:08:22;;;;;;;9.70;5.85;;;0.90;99.90;;;0.74;80.34;99449.97;4828250;28;24826;-62
2024/01/15 06:10:44;;;;;;;8.80;4.90;;;0.90;99.90;;;0.76;80.31;99444.75;4815695;28;24444;-63
2024/01/15 06:13:07;;;;;;;8.65;4.90;;;1.00;99.90;;;0.75;80.02;99450.75;4834125;28;24437;-63
2024/01/15 06:15:29;;;;;;;7.72;4.90;;;1.00;99.90;;;0.82;80.15;99456.41;4834670;28;24531;-64
2024/01/15 06:17:51;;;;;;;9.57;4.90;;;1.00;99.90;;;0.85;80.06;99458.84;4831951;28;24887;-64
2024/01/15 06:20:13;;;;;;;7.88;4.45;;;1.00;99.90;;;0.88;80.32;99459.50;4832658;28;24432;-62
2024/01/15 06:22:36;;;;;;;7.60;4.55;;;1.10;99.90;;;0.94;79.91;99455.81;4816901;28;24428;-61
2024/01/15 06:24:58;;;;;;;8.95;4.90;;;1.10;99.90;;;0.96;80.29;99452.25;4827277;28;24480;-62
2024/01/15 06:27:20;;;;;;;10.65;5.38;;;1.20;99.90;;;1.00;79.97;99448.59;4817486;28;24517;-63
2024/01/15 06:29:48;;;;;;;10.27;5.22;;;1.20;99.90;;;1.01;79.49;99447.69;4827675;28;24545;-61
2024/01/15 06:32:12;;;;;;;7.85;3.63;;;1.20;99.90;;;0.95;80.13;99453.16;4815796;28;24648;-63
2024/01/15 06:34:34;;;;;;;7.43;4.00;;;1.30;99.90;;;0.89;80.13;99455.22;4817891;28;24472;-62
2024/01/15 06:36:56;;;;;;;9.10;4.20;;;1.20;99.90;;;0.87;80.68;99455.28;4833370;28;24459;-61
2024/01/15 06:39:18;;;;;;;7.60;4.60;;;1.20;99.90;;;0.89;80.59;99460.34;4825992;28;24455;-62
2024/01/15 06:41:43;;;;;;;8.75;5.00;;;1.20;99.90;;;0.90;80.87;99462.81;4831138;28;24444;-63
2024/01/15 06:44:05;;;;;;;8.98;4.80;;;1.10;99.90;;;0.90;80.83;99460.25;4831305;28;24451;-63
2024/01/15 06:46:27;;;;;;;8.90;5.00;;;1.10;99.90;;;0.91;81.05;99456.78;4829566;28;24522;-63
2024/01/15 06:48:49;;;;;;;9.45;4.75;;;1.20;99.90;;;0.89;81.06;99458.63;4827423;28;24494;-63
2024/01/15 06:51:12;;;;;;;9.98;4.80;;;1.20;99.90;;;0.90;81.03;99451.72;4829545;28;24444;-63
2024/01/15 06:53:34;;;;;;;11.33;5.63;;;1.20;99.90;;;0.93;81.28;99454.16;4815555;28;24503;-64
2024/01/15 06:55:55;;;;;;;3.33;2.92;;;1.20;99.90;;;0.97;81.45;99443.63;4819586;28;24562;-63
2024/01/15 06:58:18;;;;;;;9.35;4.90;;;1.20;99.90;;;0.99;81.41;99454.66;4832529;28;24452;-62
2024/01/15 07:00:40;;;;;;;10.38;4.90;;;1.20;99.90;;;1.05;80.68;99445.78;4830498;28;24997;-63
2024/01/15 07:03:03;;;;;;;8.48;4.80;;;1.20;99.90;;;1.05;80.92;99444.06;4829932;28;24464;-63
2024/01/15 07:05:25;;;;;;;9.00;4.53;;;1.30;99.90;;;1.05;80.62;99425.25;4825550;28;24928;-63
2024/01/15 07:07:47;;;;;;;8.63;5.07;;;1.30;99.90;;;1.03;80.69;99433.03;4823767;28;24457;-63
2024/01/15 07:10:10;;;;;;;7.60;4.22;;;1.30;99.90;;;1.04;80.66;99428.75;4832267;28;24445;-63
2024/01/15 07:12:32;;;;;;;11.00;5.35;;;1.30;99.90;;;1.02;81.01;99428.84;4827884;28;24449;-63
2024/01/15 07:14:54;;;;;;;12.15;5.07;;;1.30;99.90;;;1.02;81.03;99430.56;4827136;28;24503;-64
2024/01/15 07:17:16;;;;;;;9.50;5.00;;;1.20;99.90;;;0.98;81.07;99436.78;4828512;28;24441;-63
2024/01/15 07:19:38;;;;;;;11.13;5.65;;;1.30;99.90;;;0.97;81.70;99433.38;4824757;28;24487;-63
2024/01/15 07:22:00;;;;;;;8.88;4.40;;;1.20;99.90;;;0.96;81.65;99431.69;4834601;28;24552;-63
2024/01/15 07:24:22;;;;;;;9.60;4.32;;;1.20;99.90;;;0.94;81.55;99433.50;4834864;28;24428;-63
2024/01/15 07:26:44;;;;;;;10.60;5.05;;;1.20;99.90;;;0.85;82.38;99436.56;4832950;28;24439;-63
2024/01/15 07:29:06;;;;;;;8.23;4.90;;;1.10;99.90;;;0.89;82.29;99438.06;4822550;28;24464;-63
2024/01/15 07:31:28;;;;;;;12.30;5.47;;;1.10;99.90;;;0.95;82.58;99430.06;4838140;28;25012;-62
2024/01/15 07:33:51;;;;;;;9.73;5.30;;;1.10;99.90;;;1.00;82.32;99422.91;4835228;28;24492;-64
2024/01/15 07:36:13;;;;;;;10.25;5.15;;;1.20;99.90;;;1.01;81.30;99427.16;4821158;28;24441;-63
2024/01/15 07:38:35;;;;;;;9.43;5.07;;;1.20;99.90;;;1.02;81.81;99431.41;4830031;28;24591;-63
2024/01/15 07:40:56;;;;;;;9.00;5.40;;;1.20;99.90;;;1.05;82.06;99431.22;4820840;28;24857;-63
2024/01/15 07:43:22;;;;;;;10.70;5.73;;;1.20;99.90;;;1.07;82.01;99429.41;4822049;28;25075;-64
2024/01/15 07:45:45;;;;;;;10.10;5.22;;;1.30;99.90;;;1.04;82.14;99424.44;4836493;28;24437;-62
2024/01/15 07:48:07;;;;;;;9.32;4.75;;;1.30;99.90;;;1.11;81.92;99420.63;4825097;28;24503;-64
2024/01/15 07:50:29;;;;;;;9.60;5.30;;;1.30;99.90;;;1.09;82.08;99422.44;4831007;28;24452;-62
2024/01/15 07:52:53;;;;;;;7.80;5.20;;;1.30;99.90;;;1.12;82.50;99429.16;4835355;28;25092;-62
2024/01/15 07:55:15;;;;;;;10.88;5.70;;;1.40;99.90;;;1.07;82.28;99418.28;4834002;28;24436;-63
2024/01/15 07:57:37;;;;;;;9.40;5.68;;;1.30;99.90;;;1.11;82.67;99420.63;4825095;28;24433;-63
2024/01/15 07:59:58;;;;;;;12.63;5.50;;;1.30;99.90;;;1.13;82.59;99421.38;4835905;28;24810;-63
2024/01/15 08:02:21;;;;;;;8.45;5.28;;;1.30;99.90;;;1.20;82.15;99427.03;4830542;28;24807;-63
2024/01/15 08:04:44;;;;;;;12.65;5.20;;;1.40;99.90;;;1.25;82.49;99427.63;4831619;28;24448;-62
2024/01/15 08:07:07;;;;;;;10.45;5.47;;;1.50;99.90;;;1.26;82.20;99414.69;4826458;28;24483;-63
2024/01/15 08:09:30;;;;;;;10.82;5.60;;;1.50;99.90;;;1.28;82.30;99414.59;4835062;28;25001;-63
2024/01/15 08:11:52;;;;;;;10.43;5.85;;;1.50;99.90;;;1.32;81.88;99414.34;4831780;28;24547;-64
2024/01/15 08:14:14;;;;;;;11.38;5.43;;;1.50;99.90;;;1.33;82.30;99416.03;4830480;28;24436;-64
2024/01/15 08:16:39;;;;;;;5.80;3.28;;;1.50;99.90;;;1.26;82.26;99421.53;4829302;28;24445;-63
2024/01/15 08:19:01;;;;;;;7.27;4.10;;;1.50;99.90;;;1.28;81.96;99420.56;4824398;28;24443;-62
2024/01/15 08:21:23;;;;;;;7.82;4.70;;;1.50;99.90;;;1.24;81.73;99403.66;4827451;28;24449;-63
2024/01/15 08:23:45;;;;;;;9.30;4.85;;;1.50;99.90;;;1.22;81.85;99410.63;4827239;28;24535;-63
2024/01/15 08:26:07;;;;;;;12.18;5.28;;;1.50;99.90;;;1.20;81.83;99411.59;4837303;28;24464;-64
2024/01/15 08:28:29;;;;;;;11.50;5.25;;;1.40;99.90;;;1.20;81.54;99412.44;4825679;28;24894;-63
2024/01/15 08:30:51;;;;;;;12.43;5.63;;;1.40;99.90;;;1.13;81.66;99403.38;4834212;28;24425;-63
2024/01/15 08:33:13;;;;;;;11.07;5.65;;;1.40;99.90;;;1.16;82.00;99408.38;4834678;28;24530;-63
2024/01/15 08:35:43;;;;;;;10.20;5.40;;;1.40;99.90;;;1.10;82.20;99408.72;4831219;28;24431;-63
2024/01/15 08:38:05;;;;;;;11.45;5.85;;;1.40;99.90;;;1.13;82.07;99407.72;4834372;28;24518;-63
2024/01/15 08:40:27;;;;;;;11.13;5.30;;;1.40;99.90;;;1.18;82.57;99403.16;4829039;28;24544;-63
2024/01/15 08:42:49;;;;;;;9.67;5.60;;;1.40;99.90;;;1.22;82.46;99402.91;4832411;28;24528;-61
2024/01/15 08:45:12;;;;;;;10.43;5.95;;;1.40;99.90;;;1.27;82.19;99400.94;4834692;28;24440;-63
2024/01/15 08:47:35;;;;;;;9.48;5.00;;;1.50;99.90;;;1.32;82.36;99414.34;4832819;28;25175;-64
2024/01/15 08:49:57;;;;;;;11.02;5.60;;;1.50;99.90;;;1.38;82.11;99420.91;4835186;28;24810;-64
2024/01/15 08:52:20;;;;;;;9.32;5.30;;;1.60;99.90;;;1.46;82.50;99417.03;4826099;28;24537;-63
2024/01/15 08:54:42;;;;;;;10.82;5.55;;;1.60;99.90;;;1.51;83.51;99417.59;4828533;28;24447;-63
2024/01/15 08:57:04;;;;;;;9.25;5.47;;;1.60;99.90;;;1.62;82.48;99416.19;4820350;28;25036;-62
2024/01/15 08:59:26;;;;;;;8.02;4.45;;;1.70;99.90;;;1.64;82.82;99422.06;4819335;28;24519;-63
2024/01/15 09:01:48;;;;;;;9.25;4.90;;;1.80;99.90;;;1.69;82.33;99418.34;4828453;28;25012;-63
2024/01/15 09:04:10;;;;;;;9.67;5.37;;;1.90;99.90;;;1.68;83.06;99410.72;4829970;28;24961;-64
2024/01/15 09:06:33;;;;;;;9.43;5.70;;;1.90;99.90;;;1.68;82.57;99406.41;4829255;28;24837;-64
2024/01/15 09:08:54;;;;;;;9.43;5.20;;;1.80;99.90;;;1.70;82.82;99403.75;4831572;28;24459;-63
2024/01/15 09:11:16;;;;;;;12.25;5.90;;;1.90;99.90;;;1.74;82.68;99402.66;4829323;28;24841;-63
2024/01/15 09:13:38;;;;;;;8.57;5.32;;;1.90;99.90;;;1.74;82.90;99405.22;4830345;28;24433;-64
2024/01/15 09:16:02;;;;;;;9.18;5.75;;;1.90;99.90;;;1.81;82.46;99401.41;4821380;28;24429;-64
2024/01/15 09:18:24;;;;;;;9.95;5.10;;;1.90;99.90;;;1.81;82.54;99401.41;4833125;28;24459;-63
2024/01/15 09:20:46;;;;;;;10.45;5.60;;;2.00;99.90;;;1.85;82.55;99397.75;4829553;28;24467;-63
2024/01/15 09:23:08;;;;;;;9.00;4.80;;;2.00;99.90;;;1.92;82.04;99392.16;4833543;28;24464;-63
2024/01/15 09:25:30;;;;;;;7.63;3.63;;;2.00;99.90;;;1.94;82.09;99394.66;4829015;28;24463;-63
2024/01/15 09:27:53;;;;;;;8.23;4.65;;;2.10;99.90;;;1.92;81.39;99399.88;4831341;28;24488;-64
2024/01/15 09:30:15;;;;;;;9.00;5.40;;;2.10;99.90;;;1.91;82.29;99397.41;4831194;28;24514;-63
2024/01/15 09:32:37;;;;;;;10.40;5.90;;;2.10;99.90;;;1.92;81.84;99397.31;4831812;28;24421;-63
2024/01/15 09:34:59;;;;;;;10.25;5.80;;;2.10;99.90;;;1.95;81.38;99388.59;4826195;28;24453;-63
2024/01/15 09:37:21;;;;;;;9.05;5.35;;;2.10;99.90;;;1.89;81.88;99389.78;4822449;28;24448;-64
2024/01/15 09:40:05;;;;;;;9.65;5.90;;;2.10;99.90;;;1.84;82.31;99391.78;4824145;28;24437;-63
2024/01/15 09:42:28;;;;;;;9.25;5.80;;;2.00;99.90;;;1.90;82.41;99382.88;4829027;28;24459;-62
2024/01/15 09:44:51;;;;;;;10.75;5.78;;;2.00;99.90;;;1.93;82.47;99385.28;4823598;28;24456;-64
2024/01/15 09:47:13;;;;;;;11.77;5.65;;;2.10;99.90;;;2.00;82.23;99395.13;4828035;28;24448;-64
2024/01/15 09:49:35;;;;;;;9.48;5.75;;;2.10;99.90;;;2.05;81.99;99392.28;4817473;28;20808;-63
2024/01/15 09:51:58;;;;;;;8.10;4.72;;;2.20;99.90;;;2.10;81.64;99386.00;4832432;28;24448;-64
2024/01/15 09:54:33;;;;;;;9.57;5.40;;;2.20;99.90;;;2.10;81.84;99392.88;4820493;28;24468;-63
2024/01/15 09:56:56;;;;;;;7.00;4.30;;;2.20;99.90;;;2.08;81.73;99381.84;4814744;28;24503;-63
2024/01/15 09:59:23;;;;;;;11.52;5.30;;;2.20;99.90;;;2.06;81.86;99375.97;4827059;28;24440;-64
2024/01/15 10:01:48;;;;;;;7.63;4.88;;;2.20;99.90;;;2.06;82.37;99388.81;4829133;28;24519;-64
2024/01/15 10:04:12;;;;;;;8.32;5.40;;;2.20;99.90;;;2.05;82.50;99374.28;4825712;28;25008;-64
2024/01/15 10:06:35;;;;;;;8.00;5.07;;;2.20;99.90;;;2.04;83.15;99378.63;4816373;28;24487;-64